sensor_id;sensor_type;location;lat;lon;timestamp;pressure;altitude;pressure_sealevel;temperature;humidity
71772;BME280;59606;52.138;5.424;2023-01-23T00:01:04;103754.75;;;1.52;100.00
71772;BME280;59606;52.138;5.424;2023-01-23T00:03:31;103759.88;;;1.52;100.00
71772;BME280;59606;52.138;5.424;2023-01-23T00:06:07;103768.47;;;1.53;100.00
71772;BME280;59606;52.138;5.424;2023-01-23T00:08:34;103771.91;;;1.53;100.00
71772;BME280;59606;52.138;5.424;2023-01-23T00:11:17;103771.91;;;1.53;100.00
71772;BME280;59606;52.138;5.424;2023-01-23T00:13:44;103767.63;;;1.54;100.00
71772;BME280;59606;52.138;5.424;2023-01-23T00:16:13;103768.47;;;1.53;100.00
71772;BME280;59606;52.138;5.424;2023-01-23T00:18:40;103763.31;;;1.53;100.00
71772;BME280;59606;52.138;5.424;2023-01-23T00:21:09;103766.75;;;1.53;100.00
71772;BME280;59606;52.138;5.424;2023-01-23T00:23:36;103766.75;;;1.53;100.00
71772;BME280;59606;52.138;5.424;2023-01-23T00:26:05;103772.75;;;1.54;100.00
71772;BME280;59606;52.138;5.424;2023-01-23T00:28:32;103770.16;;;1.52;100.00
71772;BME280;59606;52.138;5.424;2023-01-23T00:31:06;103771.03;;;1.53;100.00
71772;BME280;59606;52.138;5.424;2023-01-23T00:33:33;103772.72;;;1.52;100.00
71772;BME280;59606;52.138;5.424;2023-01-23T00:36:00;103771.03;;;1.53;100.00
71772;BME280;59606;52.138;5.424;2023-01-23T00:38:27;103766.72;;;1.52;100.00
71772;BME280;59606;52.138;5.424;2023-01-23T00:40:53;103761.59;;;1.52;100.00
71772;BME280;59606;52.138;5.424;2023-01-23T00:43:22;103765.03;;;1.52;100.00
71772;BME280;59606;52.138;5.424;2023-01-23T00:45:50;103766.72;;;1.52;100.00
71772;BME280;59606;52.138;5.424;2023-01-23T00:48:16;103773.56;;;1.51;100.00
71772;BME280;59606;52.138;5.424;2023-01-23T00:50:43;103761.59;;;1.52;100.00
71772;BME280;59606;52.138;5.424;2023-01-23T00:53:10;103763.31;;;1.53;100.00
71772;BME280;59606;52.138;5.424;2023-01-23T00:55:38;103755.53;;;1.50;100.00
71772;BME280;59606;52.138;5.424;2023-01-23T00:58:05;103762.38;;;1.51;100.00
71772;BME280;59606;52.138;5.424;2023-01-23T01:00:32;103756.38;;;1.50;100.00
71772;BME280;59606;52.138;5.424;2023-01-23T01:02:59;103760.72;;;1.51;100.00
71772;BME280;59606;52.138;5.424;2023-01-23T01:05:25;103759.81;;;1.51;100.00
71772;BME280;59606;52.138;5.424;2023-01-23T01:07:52;103746.94;;;1.49;100.00
71772;BME280;59606;52.138;5.424;2023-01-23T01:10:19;103746.06;;;1.49;100.00
71772;BME280;59606;52.138;5.424;2023-01-23T01:12:46;103747.78;;;1.48;100.00
71772;BME280;59606;52.138;5.424;2023-01-23T01:15:13;103740.88;;;1.47;100.00
71772;BME280;59606;52.138;5.424;2023-01-23T01:17:40;103746.94;;;1.49;100.00
71772;BME280;59606;52.138;5.424;2023-01-23T01:20:07;103743.50;;;1.49;100.00
71772;BME280;59606;52.138;5.424;2023-01-23T01:22:33;103745.22;;;1.48;100.00
71772;BME280;59606;52.138;5.424;2023-01-23T01:25:00;103740.00;;;1.47;100.00
71772;BME280;59606;52.138;5.424;2023-01-23T01:27:27;103747.72;;;1.47;100.00
71772;BME280;59606;52.138;5.424;2023-01-23T01:29:54;103756.28;;;1.47;100.00
71772;BME280;59606;52.138;5.424;2023-01-23T01:32:20;103755.44;;;1.47;100.00
71772;BME280;59606;52.138;5.424;2023-01-23T01:34:47;103754.56;;;1.46;100.00
71772;BME280;59606;52.138;5.424;2023-01-23T01:37:14;103758.84;;;1.46;100.00
71772;BME280;59606;52.138;5.424;2023-01-23T01:39:40;103765.66;;;1.45;100.00
71772;BME280;59606;52.138;5.424;2023-01-23T01:42:07;103761.41;;;1.46;100.00
71772;BME280;59606;52.138;5.424;2023-01-23T01:44:52;103763.13;;;1.47;100.00
71772;BME280;59606;52.138;5.424;2023-01-23T01:47:19;103766.53;;;1.46;100.00
71772;BME280;59606;52.138;5.424;2023-01-23T01:49:46;103757.13;;;1.46;100.00
71772;BME280;59606;52.138;5.424;2023-01-23T01:52:13;103752.84;;;1.47;100.00
71772;BME280;59606;52.138;5.424;2023-01-23T01:54:47;103752.84;;;1.47;100.00
71772;BME280;59606;52.138;5.424;2023-01-23T01:57:23;103758.00;;;1.47;100.00
71772;BME280;59606;52.138;5.424;2023-01-23T02:02:35;103758.00;;;1.47;100.00
71772;BME280;59606;52.138;5.424;2023-01-23T02:05:17;103761.50;;;1.49;100.00
71772;BME280;59606;52.138;5.424;2023-01-23T02:07:53;103766.63;;;1.49;100.00
71772;BME280;59606;52.138;5.424;2023-01-23T02:10:22;103764.91;;;1.48;100.00
71772;BME280;59606;52.138;5.424;2023-01-23T02:12:50;103760.63;;;1.48;100.00
71772;BME280;59606;52.138;5.424;2023-01-23T02:15:18;103758.91;;;1.49;100.00
71772;BME280;59606;52.138;5.424;2023-01-23T02:17:47;103767.50;;;1.49;100.00
71772;BME280;59606;52.138;5.424;2023-01-23T02:25:27;103765.75;;;1.48;100.00
71772;BME280;59606;52.138;5.424;2023-01-23T02:27:55;103776.84;;;1.47;100.00
71772;BME280;59606;52.138;5.424;2023-01-23T02:30:22;103787.19;;;1.49;100.00
71772;BME280;59606;52.138;5.424;2023-01-23T02:32:49;103779.47;;;1.49;100.00
71772;BME280;59606;52.138;5.424;2023-01-23T02:35:21;103779.50;;;1.50;100.00
71772;BME280;59606;52.138;5.424;2023-01-23T02:37:51;103777.81;;;1.51;100.00
71772;BME280;59606;52.138;5.424;2023-01-23T02:40:32;103778.63;;;1.50;100.00
71772;BME280;59606;52.138;5.424;2023-01-23T02:42:59;103778.72;;;1.51;100.00
71772;BME280;59606;52.138;5.424;2023-01-23T02:45:25;103783.00;;;1.52;100.00
71772;BME280;59606;52.138;5.424;2023-01-23T02:47:52;103788.16;;;1.52;100.00
71772;BME280;59606;52.138;5.424;2023-01-23T02:50:19;103786.44;;;1.53;100.00
71772;BME280;59606;52.138;5.424;2023-01-23T02:52:46;103801.84;;;1.53;100.00
71772;BME280;59606;52.138;5.424;2023-01-23T02:55:14;103805.28;;;1.53;100.00
71772;BME280;59606;52.138;5.424;2023-01-23T02:57:41;103794.22;;;1.54;100.00
71772;BME280;59606;52.138;5.424;2023-01-23T03:00:08;103797.66;;;1.55;100.00
71772;BME280;59606;52.138;5.424;2023-01-23T03:02:49;103800.22;;;1.55;100.00
71772;BME280;59606;52.138;5.424;2023-01-23T03:05:16;103792.50;;;1.55;100.00
71772;BME280;59606;52.138;5.424;2023-01-23T03:07:43;103807.06;;;1.54;100.00
71772;BME280;59606;52.138;5.424;2023-01-23T03:10:10;103798.53;;;1.55;100.00
71772;BME280;59606;52.138;5.424;2023-01-23T03:12:37;103794.22;;;1.54;100.00
71772;BME280;59606;52.138;5.424;2023-01-23T03:15:08;103798.44;;;1.54;100.00
71772;BME280;59606;52.138;5.424;2023-01-23T03:17:35;103791.66;;;1.54;100.00
71772;BME280;59606;52.138;5.424;2023-01-23T03:20:02;103793.38;;;1.55;100.00
71772;BME280;59606;52.138;5.424;2023-01-23T03:22:31;103795.09;;;1.55;100.00
71772;BME280;59606;52.138;5.424;2023-01-23T03:24:57;103798.44;;;1.54;100.00
71772;BME280;59606;52.138;5.424;2023-01-23T03:27:24;103794.22;;;1.54;100.00
71772;BME280;59606;52.138;5.424;2023-01-23T03:29:50;103796.78;;;1.54;100.00
71772;BME280;59606;52.138;5.424;2023-01-23T03:32:36;103798.44;;;1.54;100.00
71772;BME280;59606;52.138;5.424;2023-01-23T03:35:05;103793.31;;;1.54;100.00
71772;BME280;59606;52.138;5.424;2023-01-23T03:37:32;103798.53;;;1.55;100.00
71772;BME280;59606;52.138;5.424;2023-01-23T03:39:58;103801.91;;;1.54;100.00
71772;BME280;59606;52.138;5.424;2023-01-23T03:42:44;103805.34;;;1.55;100.00
71772;BME280;59606;52.138;5.424;2023-01-23T03:45:10;103801.09;;;1.55;100.00
71772;BME280;59606;52.138;5.424;2023-01-23T03:47:37;103796.78;;;1.54;100.00
71772;BME280;59606;52.138;5.424;2023-01-23T03:50:03;103800.25;;;1.56;100.00
71772;BME280;59606;52.138;5.424;2023-01-23T03:52:31;103801.09;;;1.55;100.00
71772;BME280;59606;52.138;5.424;2023-01-23T03:54:57;103808.81;;;1.57;100.00
71772;BME280;59606;52.138;5.424;2023-01-23T03:57:24;103804.53;;;1.56;100.00
71772;BME280;59606;52.138;5.424;2023-01-23T03:59:50;103803.66;;;1.55;100.00
71772;BME280;59606;52.138;5.424;2023-01-23T04:02:17;103809.63;;;1.54;100.00
71772;BME280;59606;52.138;5.424;2023-01-23T04:04:43;103801.09;;;1.55;100.00
71772;BME280;59606;52.138;5.424;2023-01-23T04:07:09;103812.22;;;1.56;100.00
71772;BME280;59606;52.138;5.424;2023-01-23T04:09:36;103807.09;;;1.56;100.00
71772;BME280;59606;52.138;5.424;2023-01-23T04:12:02;103815.66;;;1.56;100.00
71772;BME280;59606;52.138;5.424;2023-01-23T04:14:29;103804.56;;;1.57;100.00
71772;BME280;59606;52.138;5.424;2023-01-23T04:16:58;103806.25;;;1.57;100.00
71772;BME280;59606;52.138;5.424;2023-01-23T04:19:25;103808.81;;;1.57;100.00
71772;BME280;59606;52.138;5.424;2023-01-23T04:21:51;103820.88;;;1.58;100.00
71772;BME280;59606;52.138;5.424;2023-01-23T04:24:17;103819.16;;;1.58;100.00
71772;BME280;59606;52.138;5.424;2023-01-23T04:26:44;103819.97;;;1.57;100.00
71772;BME280;59606;52.138;5.424;2023-01-23T04:29:11;103823.44;;;1.58;100.00
71772;BME280;59606;52.138;5.424;2023-01-23T04:31:37;103817.47;;;1.59;100.00
71772;BME280;59606;52.138;5.424;2023-01-23T04:34:04;103822.59;;;1.59;100.00
71772;BME280;59606;52.138;5.424;2023-01-23T04:36:30;103819.97;;;1.57;100.00
71772;BME280;59606;52.138;5.424;2023-01-23T04:38:57;103825.09;;;1.57;100.00
71772;BME280;59606;52.138;5.424;2023-01-23T04:41:27;103816.59;;;1.58;100.00
71772;BME280;59606;52.138;5.424;2023-01-23T04:43:54;103808.81;;;1.57;100.00
71772;BME280;59606;52.138;5.424;2023-01-23T04:46:20;103820.88;;;1.58;100.00
71772;BME280;59606;52.138;5.424;2023-01-23T04:48:47;103813.16;;;1.58;100.00
71772;BME280;59606;52.138;5.424;2023-01-23T04:51:14;103819.16;;;1.58;100.00
71772;BME280;59606;52.138;5.424;2023-01-23T04:53:40;103819.16;;;1.58;100.00
71772;BME280;59606;52.138;5.424;2023-01-23T04:56:07;103820.91;;;1.59;100.00
71772;BME280;59606;52.138;5.424;2023-01-23T04:58:33;103820.03;;;1.59;100.00
71772;BME280;59606;52.138;5.424;2023-01-23T05:01:02;103820.91;;;1.59;100.00
71772;BME280;59606;52.138;5.424;2023-01-23T05:03:28;103811.50;;;1.60;100.00
71772;BME280;59606;52.138;5.424;2023-01-23T05:05:55;103820.91;;;1.59;100.00
71772;BME280;59606;52.138;5.424;2023-01-23T05:08:21;103825.28;;;1.62;100.00
71772;BME280;59606;52.138;5.424;2023-01-23T05:10:48;103825.22;;;1.60;100.00
71772;BME280;59606;52.138;5.424;2023-01-23T05:13:14;103825.28;;;1.62;100.00
71772;BME280;59606;52.138;5.424;2023-01-23T05:15:41;103820.06;;;1.60;100.00
71772;BME280;59606;52.138;5.424;2023-01-23T05:18:07;103830.34;;;1.60;100.00
71772;BME280;59606;52.138;5.424;2023-01-23T05:20:33;103832.97;;;1.62;100.00
71772;BME280;59606;52.138;5.424;2023-01-23T05:23:00;103833.78;;;1.61;100.00
71772;BME280;59606;52.138;5.424;2023-01-23T05:25:27;103835.47;;;1.60;100.00
71772;BME280;59606;52.138;5.424;2023-01-23T05:27:54;103840.69;;;1.62;100.00
71772;BME280;59606;52.138;5.424;2023-01-23T05:30:22;103844.13;;;1.62;100.00
71772;BME280;59606;52.138;5.424;2023-01-23T05:32:49;103838.06;;;1.60;100.00
71772;BME280;59606;52.138;5.424;2023-01-23T05:35:16;103844.97;;;1.61;100.00
71772;BME280;59606;52.138;5.424;2023-01-23T05:37:50;103838.91;;;1.61;100.00
71772;BME280;59606;52.138;5.424;2023-01-23T05:40:17;103841.56;;;1.62;100.00
71772;BME280;59606;52.138;5.424;2023-01-23T05:42:46;103841.56;;;1.62;100.00
71772;BME280;59606;52.138;5.424;2023-01-23T05:45:12;103843.25;;;1.62;100.00
71772;BME280;59606;52.138;5.424;2023-01-23T05:47:39;103845.81;;;1.62;100.00
71772;BME280;59606;52.138;5.424;2023-01-23T05:50:07;103849.25;;;1.62;100.00
71772;BME280;59606;52.138;5.424;2023-01-23T05:52:35;103845.81;;;1.62;100.00
71772;BME280;59606;52.138;5.424;2023-01-23T05:55:01;103844.97;;;1.61;100.00
71772;BME280;59606;52.138;5.424;2023-01-23T05:57:28;103836.34;;;1.61;100.00
71772;BME280;59606;52.138;5.424;2023-01-23T05:59:54;103844.97;;;1.61;100.00
71772;BME280;59606;52.138;5.424;2023-01-23T06:02:20;103841.50;;;1.61;100.00
71772;BME280;59606;52.138;5.424;2023-01-23T06:04:47;103845.75;;;1.60;100.00
71772;BME280;59606;52.138;5.424;2023-01-23T06:07:16;103844.06;;;1.61;100.00
71772;BME280;59606;52.138;5.424;2023-01-23T06:09:43;103837.19;;;1.60;100.00
71772;BME280;59606;52.138;5.424;2023-01-23T06:12:10;103842.38;;;1.61;100.00
71772;BME280;59606;52.138;5.424;2023-01-23T06:14:37;103843.25;;;1.62;100.00
71772;BME280;59606;52.138;5.424;2023-01-23T06:17:04;103842.41;;;1.63;100.00
71772;BME280;59606;52.138;5.424;2023-01-23T06:19:31;103839.00;;;1.62;100.00
71772;BME280;59606;52.138;5.424;2023-01-23T06:21:57;103843.25;;;1.62;100.00
71772;BME280;59606;52.138;5.424;2023-01-23T06:24:24;103850.09;;;1.61;100.00
71772;BME280;59606;52.138;5.424;2023-01-23T06:26:50;103854.41;;;1.62;100.00
71772;BME280;59606;52.138;5.424;2023-01-23T06:29:17;103856.97;;;1.62;100.00
71772;BME280;59606;52.138;5.424;2023-01-23T06:31:44;103866.38;;;1.62;100.00
71772;BME280;59606;52.138;5.424;2023-01-23T06:34:13;103868.94;;;1.62;100.00
71772;BME280;59606;52.138;5.424;2023-01-23T06:36:40;103866.38;;;1.62;100.00
71772;BME280;59606;52.138;5.424;2023-01-23T06:39:07;103878.41;;;1.63;100.00
71772;BME280;59606;52.138;5.424;2023-01-23T06:41:37;103874.97;;;1.62;100.00
71772;BME280;59606;52.138;5.424;2023-01-23T06:44:03;103886.09;;;1.63;100.00
71772;BME280;59606;52.138;5.424;2023-01-23T06:46:30;103886.09;;;1.63;100.00
71772;BME280;59606;52.138;5.424;2023-01-23T06:48:56;103897.25;;;1.63;100.00
71772;BME280;59606;52.138;5.424;2023-01-23T06:51:23;103909.31;;;1.64;100.00
71772;BME280;59606;52.138;5.424;2023-01-23T06:53:50;103895.63;;;1.65;100.00
71772;BME280;59606;52.138;5.424;2023-01-23T06:56:16;103888.75;;;1.64;100.00
71772;BME280;59606;52.138;5.424;2023-01-23T06:58:44;103887.84;;;1.64;100.00
71772;BME280;59606;52.138;5.424;2023-01-23T07:01:13;103889.59;;;1.65;100.00
71772;BME280;59606;52.138;5.424;2023-01-23T07:03:42;103893.88;;;1.64;100.00
71772;BME280;59606;52.138;5.424;2023-01-23T07:06:11;103886.09;;;1.63;100.00
71772;BME280;59606;52.138;5.424;2023-01-23T07:08:38;103880.97;;;1.63;100.00
71772;BME280;59606;52.138;5.424;2023-01-23T07:11:05;103880.13;;;1.64;100.00
71772;BME280;59606;52.138;5.424;2023-01-23T07:13:31;103870.69;;;1.63;100.00
71772;BME280;59606;52.138;5.424;2023-01-23T07:15:58;103880.13;;;1.64;100.00
71772;BME280;59606;52.138;5.424;2023-01-23T07:18:25;103875.88;;;1.64;100.00
71772;BME280;59606;52.138;5.424;2023-01-23T07:20:53;103877.56;;;1.64;100.00
71772;BME280;59606;52.138;5.424;2023-01-23T07:23:20;103875.00;;;1.64;100.00
71772;BME280;59606;52.138;5.424;2023-01-23T07:25:47;103876.69;;;1.63;100.00
71772;BME280;59606;52.138;5.424;2023-01-23T07:28:14;103878.47;;;1.64;100.00
71772;BME280;59606;52.138;5.424;2023-01-23T07:30:40;103881.91;;;1.65;100.00
71772;BME280;59606;52.138;5.424;2023-01-23T07:33:06;103887.91;;;1.65;100.00
71772;BME280;59606;52.138;5.424;2023-01-23T07:35:33;103898.19;;;1.65;100.00
71772;BME280;59606;52.138;5.424;2023-01-23T07:37:59;103901.66;;;1.68;100.00
71772;BME280;59606;52.138;5.424;2023-01-23T07:40:26;103890.50;;;1.67;100.00
71772;BME280;59606;52.138;5.424;2023-01-23T07:42:55;103886.19;;;1.66;100.00
71772;BME280;59606;52.138;5.424;2023-01-23T07:45:22;103887.13;;;1.68;100.00
71772;BME280;59606;52.138;5.424;2023-01-23T07:47:48;103887.13;;;1.68;100.00
71772;BME280;59606;52.138;5.424;2023-01-23T07:50:15;103888.81;;;1.68;100.00
71772;BME280;59606;52.138;5.424;2023-01-23T07:52:41;103900.84;;;1.69;100.00
71772;BME280;59606;52.138;5.424;2023-01-23T07:55:08;103909.44;;;1.69;100.00
71772;BME280;59606;52.138;5.424;2023-01-23T07:57:34;103913.75;;;1.70;100.00
71772;BME280;59606;52.138;5.424;2023-01-23T08:00:01;103940.38;;;1.72;100.00
71772;BME280;59606;52.138;5.424;2023-01-23T08:02:28;103939.53;;;1.73;100.00
71772;BME280;59606;52.138;5.424;2023-01-23T08:04:55;103936.13;;;1.74;100.00
71772;BME280;59606;52.138;5.424;2023-01-23T08:07:21;103937.91;;;1.75;100.00
71772;BME280;59606;52.138;5.424;2023-01-23T08:09:49;103947.44;;;1.79;100.00
71772;BME280;59606;52.138;5.424;2023-01-23T08:12:15;103938.91;;;1.80;100.00
71772;BME280;59606;52.138;5.424;2023-01-23T08:14:42;103932.06;;;1.81;100.00
71772;BME280;59606;52.138;5.424;2023-01-23T08:17:08;103948.44;;;1.84;100.00
71772;BME280;59606;52.138;5.424;2023-01-23T08:19:34;103939.06;;;1.85;100.00
71772;BME280;59606;52.138;5.424;2023-01-23T08:22:01;103938.16;;;1.84;100.00
71772;BME280;59606;52.138;5.424;2023-01-23T08:24:27;103945.97;;;1.87;100.00
71772;BME280;59606;52.138;5.424;2023-01-23T08:26:54;103948.63;;;1.89;100.00
71772;BME280;59606;52.138;5.424;2023-01-23T08:29:20;103955.50;;;1.90;100.00
71772;BME280;59606;52.138;5.424;2023-01-23T08:31:47;103960.72;;;1.93;100.00
71772;BME280;59606;52.138;5.424;2023-01-23T08:34:13;103958.22;;;1.95;100.00
71772;BME280;59606;52.138;5.424;2023-01-23T08:36:40;103951.38;;;1.95;100.00
71772;BME280;59606;52.138;5.424;2023-01-23T08:39:06;103957.50;;;1.99;100.00
71772;BME280;59606;52.138;5.424;2023-01-23T08:41:33;103952.38;;;2.00;100.00
71772;BME280;59606;52.138;5.424;2023-01-23T08:43:59;103951.63;;;2.03;100.00
71772;BME280;59606;52.138;5.424;2023-01-23T08:46:28;103945.69;;;2.05;100.00
71772;BME280;59606;52.138;5.424;2023-01-23T08:48:54;103950.88;;;2.07;100.00
71772;BME280;59606;52.138;5.424;2023-01-23T08:51:21;103956.97;;;2.10;100.00
71772;BME280;59606;52.138;5.424;2023-01-23T08:53:50;103950.19;;;2.12;100.00
71772;BME280;59606;52.138;5.424;2023-01-23T08:56:19;103954.50;;;2.13;100.00
71772;BME280;59606;52.138;5.424;2023-01-23T08:58:46;103952.00;;;2.15;100.00
71772;BME280;59606;52.138;5.424;2023-01-23T09:01:14;103958.91;;;2.18;100.00
71772;BME280;59606;52.138;5.424;2023-01-23T09:03:41;103976.13;;;2.20;100.00
71772;BME280;59606;52.138;5.424;2023-01-23T09:06:10;103977.09;;;2.24;100.00
71772;BME280;59606;52.138;5.424;2023-01-23T09:08:36;103977.25;;;2.28;100.00
71772;BME280;59606;52.138;5.424;2023-01-23T09:11:05;103968.72;;;2.29;100.00
71772;BME280;59606;52.138;5.424;2023-01-23T09:13:32;103970.53;;;2.33;100.00
71772;BME280;59606;52.138;5.424;2023-01-23T09:15:59;103974.94;;;2.38;100.00
71772;BME280;59606;52.138;5.424;2023-01-23T09:18:25;103975.88;;;2.40;100.00
71772;BME280;59606;52.138;5.424;2023-01-23T09:20:52;103973.41;;;2.43;100.00
71772;BME280;59606;52.138;5.424;2023-01-23T09:23:19;103974.34;;;2.46;100.00
71772;BME280;59606;52.138;5.424;2023-01-23T09:25:46;103979.53;;;2.48;100.00
71772;BME280;59606;52.138;5.424;2023-01-23T09:28:12;103974.44;;;2.49;100.00
71772;BME280;59606;52.138;5.424;2023-01-23T09:30:39;103971.97;;;2.52;100.00
71772;BME280;59606;52.138;5.424;2023-01-23T09:33:06;103973.72;;;2.53;100.00
71772;BME280;59606;52.138;5.424;2023-01-23T09:35:33;103974.66;;;2.57;100.00
71772;BME280;59606;52.138;5.424;2023-01-23T09:38:00;103968.78;;;2.61;100.00
71772;BME280;59606;52.138;5.424;2023-01-23T09:40:30;103973.97;;;2.63;100.00
71772;BME280;59606;52.138;5.424;2023-01-23T09:43:13;103977.50;;;2.66;100.00
71772;BME280;59606;52.138;5.424;2023-01-23T09:45:46;103985.31;;;2.69;100.00
71772;BME280;59606;52.138;5.424;2023-01-23T09:48:21;103989.63;;;2.70;100.00
71772;BME280;59606;52.138;5.424;2023-01-23T09:51:04;103991.44;;;2.73;100.00
71772;BME280;59606;52.138;5.424;2023-01-23T09:53:38;103986.38;;;2.76;100.00
71772;BME280;59606;52.138;5.424;2023-01-23T09:56:18;103989.03;;;2.79;100.00
71772;BME280;59606;52.138;5.424;2023-01-23T10:01:17;103990.00;;;2.82;100.00
71772;BME280;59606;52.138;5.424;2023-01-23T10:03:44;103993.53;;;2.86;100.00
71772;BME280;59606;52.138;5.424;2023-01-23T10:06:23;103998.84;;;2.92;100.00
71772;BME280;59606;52.138;5.424;2023-01-23T10:22:01;103985.44;;;3.04;100.00
71772;BME280;59606;52.138;5.424;2023-01-23T10:27:22;103983.00;;;3.09;100.00
71772;BME280;59606;52.138;5.424;2023-01-23T10:29:58;103981.28;;;3.09;100.00
71772;BME280;59606;52.138;5.424;2023-01-23T10:32:28;103984.91;;;3.16;100.00
71772;BME280;59606;52.138;5.424;2023-01-23T10:35:06;103972.09;;;3.19;100.00
71772;BME280;59606;52.138;5.424;2023-01-23T10:37:51;103971.47;;;3.27;100.00
71772;BME280;59606;52.138;5.424;2023-01-23T10:40:22;103972.47;;;3.33;100.00
71772;BME280;59606;52.138;5.424;2023-01-23T10:43:20;103974.19;;;3.34;100.00
71772;BME280;59606;52.138;5.424;2023-01-23T10:45:48;103973.34;;;3.33;99.93
71772;BME280;59606;52.138;5.424;2023-01-23T10:56:37;103982.03;;;3.38;99.35
71772;BME280;59606;52.138;5.424;2023-01-23T10:59:06;103981.94;;;3.35;99.28
71772;BME280;59606;52.138;5.424;2023-01-23T11:01:38;103987.25;;;3.40;99.72
71772;BME280;59606;52.138;5.424;2023-01-23T11:04:20;103982.88;;;3.37;99.13
71772;BME280;59606;52.138;5.424;2023-01-23T11:07:20;103984.75;;;3.43;98.51
71772;BME280;59606;52.138;5.424;2023-01-23T11:09:51;103980.47;;;3.43;98.82
71772;BME280;59606;52.138;5.424;2023-01-23T11:12:32;103983.81;;;3.41;98.62
71772;BME280;59606;52.138;5.424;2023-01-23T11:15:22;103987.41;;;3.46;98.20
71772;BME280;59606;52.138;5.424;2023-01-23T11:17:51;103989.94;;;3.44;98.02
71772;BME280;59606;52.138;5.424;2023-01-23T11:25:31;103973.00;;;3.54;97.80
71772;BME280;59606;52.138;5.424;2023-01-23T11:28:01;103975.69;;;3.59;97.65
71772;BME280;59606;52.138;5.424;2023-01-23T11:30:36;103979.19;;;3.61;97.32
71772;BME280;59606;52.138;5.424;2023-01-23T11:38:19;103988.53;;;3.57;97.03
71772;BME280;59606;52.138;5.424;2023-01-23T11:40:56;103989.47;;;3.59;97.16
71772;BME280;59606;52.138;5.424;2023-01-23T11:43:22;103986.00;;;3.59;96.39
71772;BME280;59606;52.138;5.424;2023-01-23T11:46:28;103983.53;;;3.63;96.82
71772;BME280;59606;52.138;5.424;2023-01-23T12:05:51;103974.66;;;3.87;96.44
71772;BME280;59606;52.138;5.424;2023-01-23T12:08:53;103973.03;;;3.90;95.78
71772;BME280;59606;52.138;5.424;2023-01-23T12:11:24;103973.19;;;3.98;95.90
71772;BME280;59606;52.138;5.424;2023-01-23T12:14:15;103963.00;;;4.03;96.06
71772;BME280;59606;52.138;5.424;2023-01-23T12:25:36;103962.59;;;4.23;95.31
71772;BME280;59606;52.138;5.424;2023-01-23T12:31:31;103966.00;;;4.22;94.98
71772;BME280;59606;52.138;5.424;2023-01-23T12:39:57;103959.25;;;4.28;94.31
71772;BME280;59606;52.138;5.424;2023-01-23T12:42:29;103955.88;;;4.30;93.97
71772;BME280;59606;52.138;5.424;2023-01-23T12:45:02;103959.41;;;4.35;93.75
71772;BME280;59606;52.138;5.424;2023-01-23T12:47:38;103962.84;;;4.36;93.35
71772;BME280;59606;52.138;5.424;2023-01-23T12:52:59;103966.41;;;4.39;93.06
71772;BME280;59606;52.138;5.424;2023-01-23T12:58:28;103968.13;;;4.42;92.81
71772;BME280;59606;52.138;5.424;2023-01-23T13:06:29;103966.34;;;4.38;92.45
71772;BME280;59606;52.138;5.424;2023-01-23T13:12:09;103971.56;;;4.39;92.38
71772;BME280;59606;52.138;5.424;2023-01-23T13:14:50;103967.22;;;4.38;91.94
71772;BME280;59606;52.138;5.424;2023-01-23T13:17:47;103970.66;;;4.39;91.42
71772;BME280;59606;52.138;5.424;2023-01-23T13:20:22;103965.47;;;4.37;91.96
71772;BME280;59606;52.138;5.424;2023-01-23T13:23:20;103979.25;;;4.38;91.22
71772;BME280;59606;52.138;5.424;2023-01-23T13:25:47;103979.22;;;4.36;91.17
71772;BME280;59606;52.138;5.424;2023-01-23T13:28:24;103983.50;;;4.36;91.20
71772;BME280;59606;52.138;5.424;2023-01-23T13:31:03;103970.63;;;4.37;91.53
71772;BME280;59606;52.138;5.424;2023-01-23T13:36:13;103975.72;;;4.33;91.29
71772;BME280;59606;52.138;5.424;2023-01-23T13:39:20;103978.22;;;4.30;91.30
71772;BME280;59606;52.138;5.424;2023-01-23T13:53:57;103984.19;;;4.27;91.17
71772;BME280;59606;52.138;5.424;2023-01-23T13:56:57;103976.44;;;4.27;91.00
71772;BME280;59606;52.138;5.424;2023-01-23T13:59:38;103980.72;;;4.27;90.86
71772;BME280;59606;52.138;5.424;2023-01-23T14:02:34;103979.81;;;4.24;91.10
71772;BME280;59606;52.138;5.424;2023-01-23T14:05:35;103977.22;;;4.23;91.36
71772;BME280;59606;52.138;5.424;2023-01-23T14:08:19;103961.63;;;4.18;91.41
71772;BME280;59606;52.138;5.424;2023-01-23T14:10:59;103963.38;;;4.19;91.25
71772;BME280;59606;52.138;5.424;2023-01-23T14:13:53;103941.94;;;4.23;91.73
71772;BME280;59606;52.138;5.424;2023-01-23T14:16:56;103930.75;;;4.23;91.36
71772;BME280;59606;52.138;5.424;2023-01-23T14:22:32;103921.31;;;4.25;91.63
71772;BME280;59606;52.138;5.424;2023-01-23T14:24:58;103916.22;;;4.27;91.67
71772;BME280;59606;52.138;5.424;2023-01-23T14:27:32;103911.88;;;4.25;91.82
71772;BME280;59606;52.138;5.424;2023-01-23T14:30:18;103917.00;;;4.24;92.00
71772;BME280;59606;52.138;5.424;2023-01-23T14:32:46;103927.28;;;4.22;91.63
71772;BME280;59606;52.138;5.424;2023-01-23T14:35:24;103916.94;;;4.19;90.52
71772;BME280;59606;52.138;5.424;2023-01-23T14:37:53;103916.03;;;4.19;90.42
71772;BME280;59606;52.138;5.424;2023-01-23T14:40:22;103910.00;;;4.17;90.03
71772;BME280;59606;52.138;5.424;2023-01-23T14:43:04;103911.59;;;4.12;89.30
71772;BME280;59606;52.138;5.424;2023-01-23T14:45:38;103923.53;;;4.08;89.32
71772;BME280;59606;52.138;5.424;2023-01-23T14:48:06;103927.81;;;4.06;89.45
71772;BME280;59606;52.138;5.424;2023-01-23T14:50:38;103928.63;;;4.05;89.95
71772;BME280;59606;52.138;5.424;2023-01-23T14:53:12;103934.66;;;4.06;89.48
71772;BME280;59606;52.138;5.424;2023-01-23T14:55:40;103938.94;;;4.05;89.97
71772;BME280;59606;52.138;5.424;2023-01-23T14:58:22;103941.50;;;4.04;89.12
71772;BME280;59606;52.138;5.424;2023-01-23T15:00:52;103936.31;;;4.02;88.90